Time;durP1;ratioP1;P1;durP2;ratioP2;P2;SDS_P1;SDS_P2;PMS_P1;PMS_P2;Temp;Humidity;BMP_temperature;BMP_pressure;BME280_temperature;BME280_humidity;BME280_pressure;Samples;Min_cycle;Max_cycle;Signal;HPM_P1;HPM_P2
2024/01/23 00:02:00;;;;;;;157.95;147.07;;;5.00;99.90;;;;;;4946360;28;20820;-75
2024/01/23 00:04:26;;;;;;;259.52;242.05;;;5.00;99.90;;;;;;4943328;28;20075;-76
2024/01/23 00:06:52;;;;;;;173.30;161.70;;;5.00;99.90;;;;;;4950441;28;20050;-75
2024/01/23 00:09:18;;;;;;;122.57;114.20;;;5.00;99.90;;;;;;4945081;28;20561;-75
2024/01/23 00:11:43;;;;;;;219.63;202.57;;;5.00;99.90;;;;;;4951145;28;20061;-75
2024/01/23 00:14:09;;;;;;;169.63;157.30;;;5.00;99.90;;;;;;4949738;28;20071;-76
2024/01/23 00:16:35;;;;;;;408.10;364.50;;;5.00;99.90;;;;;;4949777;28;20040;-76
2024/01/23 00:19:01;;;;;;;192.70;179.77;;;4.90;99.90;;;;;;4945326;28;20094;-76
2024/01/23 00:21:26;;;;;;;305.73;284.03;;;4.90;99.90;;;;;;4939608;28;20492;-76
2024/01/23 00:23:52;;;;;;;192.60;180.20;;;4.90;99.90;;;;;;4947364;28;20043;-76
2024/01/23 00:26:18;;;;;;;235.53;219.30;;;5.00;99.90;;;;;;4933866;29;20039;-76
2024/01/23 00:28:44;;;;;;;197.97;184.57;;;5.00;99.90;;;;;;4933733;29;20054;-76
2024/01/23 00:31:09;;;;;;;194.67;181.30;;;5.00;99.90;;;;;;4931726;28;20038;-76
2024/01/23 00:33:35;;;;;;;134.17;125.27;;;5.00;99.90;;;;;;4945362;28;20405;-76
2024/01/23 00:36:01;;;;;;;579.23;514.80;;;5.00;99.90;;;;;;4935265;28;20034;-75
2024/01/23 00:38:26;;;;;;;353.40;325.57;;;5.00;99.90;;;;;;4928444;29;20146;-76
2024/01/23 00:40:52;;;;;;;278.17;257.87;;;5.10;99.90;;;;;;4944704;28;20047;-75
2024/01/23 00:43:18;;;;;;;157.57;147.27;;;5.20;99.90;;;;;;4956861;28;20412;-75
2024/01/23 00:45:43;;;;;;;263.17;244.40;;;5.20;99.90;;;;;;4953331;28;20045;-75
2024/01/23 00:48:09;;;;;;;205.73;192.13;;;5.10;99.90;;;;;;4943398;28;20045;-75
2024/01/23 00:50:35;;;;;;;180.73;168.17;;;5.10;99.90;;;;;;4947892;28;20485;-75
2024/01/23 00:53:00;;;;;;;235.43;218.60;;;5.00;99.90;;;;;;4952764;28;20042;-74
2024/01/23 00:55:26;;;;;;;255.23;235.97;;;5.00;99.90;;;;;;4949085;28;20087;-76
2024/01/23 00:57:52;;;;;;;205.63;192.63;;;4.90;99.90;;;;;;4950808;28;20046;-75
2024/01/23 01:00:19;;;;;;;184.33;171.73;;;4.90;99.90;;;;;;4946521;28;20133;-75
2024/01/23 01:02:44;;;;;;;231.07;214.88;;;4.90;99.90;;;;;;4952689;28;20039;-75
2024/01/23 01:05:10;;;;;;;230.87;215.83;;;4.90;99.90;;;;;;4944134;29;20047;-75
2024/01/23 01:07:36;;;;;;;149.33;139.13;;;4.80;99.90;;;;;;4948430;28;20062;-76
2024/01/23 01:10:04;;;;;;;180.33;167.80;;;4.90;99.90;;;;;;4933026;29;20413;-75
2024/01/23 01:12:29;;;;;;;208.52;194.70;;;4.90;99.90;;;;;;4946555;28;20040;-75
2024/01/23 01:14:55;;;;;;;132.00;122.47;;;4.90;99.90;;;;;;4943007;28;20118;-75
2024/01/23 01:17:21;;;;;;;225.53;210.53;;;4.80;99.90;;;;;;4928397;29;20720;-75
2024/01/23 01:19:47;;;;;;;151.87;141.10;;;4.80;99.90;;;;;;4929451;28;20043;-75
2024/01/23 01:22:13;;;;;;;176.27;164.27;;;4.80;99.90;;;;;;4927510;29;20116;-75
2024/01/23 01:24:39;;;;;;;175.13;163.37;;;4.70;99.90;;;;;;4949513;28;20075;-75
2024/01/23 01:27:05;;;;;;;233.43;217.37;;;4.70;99.90;;;;;;4952655;28;20035;-75
2024/01/23 01:29:31;;;;;;;240.20;222.68;;;4.70;99.90;;;;;;4936855;28;20039;-75
2024/01/23 01:31:57;;;;;;;181.27;168.73;;;4.70;99.90;;;;;;4953322;28;20409;-74
2024/01/23 01:34:23;;;;;;;268.40;248.57;;;4.70;99.90;;;;;;4947664;28;20046;-75
2024/01/23 01:36:48;;;;;;;327.63;300.13;;;4.60;99.90;;;;;;4951280;28;20146;-75
2024/01/23 01:39:14;;;;;;;177.73;165.43;;;4.60;99.90;;;;;;4948002;28;20126;-75
2024/01/23 01:41:40;;;;;;;170.52;158.48;;;4.60;99.90;;;;;;4944587;28;20035;-75
2024/01/23 01:44:07;;;;;;;240.48;223.43;;;4.60;99.90;;;;;;4949482;28;20035;-75
2024/01/23 01:46:33;;;;;;;439.83;393.15;;;4.60;99.90;;;;;;4926861;29;20103;-75
2024/01/23 01:48:59;;;;;;;177.07;164.50;;;4.70;99.90;;;;;;4934022;28;20098;-75
2024/01/23 01:51:28;;;;;;;246.90;228.90;;;4.60;99.90;;;;;;4938786;28;20043;-75
2024/01/23 01:53:55;;;;;;;280.67;258.75;;;4.60;99.90;;;;;;4955963;28;20049;-76
2024/01/23 01:56:23;;;;;;;239.63;223.10;;;4.60;99.90;;;;;;4962511;28;20094;-76
2024/01/23 01:58:50;;;;;;;211.02;196.23;;;4.60;99.90;;;;;;4941599;28;20379;-75
2024/01/23 02:01:17;;;;;;;167.32;155.57;;;4.60;99.90;;;;;;4954318;28;20046;-75
2024/01/23 02:03:43;;;;;;;156.68;145.90;;;4.60;99.90;;;;;;4946516;28;20102;-75
2024/01/23 02:06:09;;;;;;;154.07;143.47;;;4.70;99.90;;;;;;4950746;28;20075;-75
2024/01/23 02:08:36;;;;;;;433.48;395.73;;;4.70;99.90;;;;;;4951295;28;20051;-75
2024/01/23 02:11:03;;;;;;;272.13;251.57;;;4.70;99.90;;;;;;4936331;29;20046;-74
2024/01/23 02:13:28;;;;;;;166.95;155.07;;;4.70;99.90;;;;;;4929294;29;20158;-74
2024/01/23 02:15:54;;;;;;;166.43;155.10;;;4.70;99.90;;;;;;4929923;29;20405;-75
2024/01/23 02:18:20;;;;;;;171.50;159.67;;;4.70;99.90;;;;;;4949800;28;20051;-75
2024/01/23 02:20:46;;;;;;;244.77;227.70;;;4.70;99.90;;;;;;4938543;29;20284;-75
2024/01/23 02:23:16;;;;;;;167.53;155.97;;;4.70;99.90;;;;;;4943131;28;20373;-75
2024/01/23 02:25:43;;;;;;;159.60;148.55;;;4.60;99.90;;;;;;4943272;28;20118;-75
2024/01/23 02:28:10;;;;;;;217.63;200.32;;;4.60;99.90;;;;;;4953013;28;20111;-76
2024/01/23 02:30:36;;;;;;;155.25;144.05;;;4.60;99.90;;;;;;4950704;28;20067;-75
2024/01/23 02:33:05;;;;;;;279.97;259.07;;;4.60;99.90;;;;;;4947644;28;20592;-75
2024/01/23 02:35:32;;;;;;;232.38;216.70;;;4.60;99.90;;;;;;4934651;29;20070;-75
2024/01/23 02:37:58;;;;;;;227.65;211.13;;;4.60;99.90;;;;;;4953621;28;20045;-75
2024/01/23 02:40:23;;;;;;;180.43;168.52;;;4.70;99.90;;;;;;4954183;28;20043;-75
2024/01/23 02:42:49;;;;;;;159.53;147.93;;;4.70;99.90;;;;;;4953530;28;20043;-75
2024/01/23 02:45:15;;;;;;;202.17;187.00;;;4.70;99.90;;;;;;4952849;28;20053;-75
2024/01/23 02:47:41;;;;;;;129.03;120.20;;;4.80;99.90;;;;;;4954603;28;20532;-75
2024/01/23 02:50:07;;;;;;;154.37;143.20;;;4.80;99.90;;;;;;4953570;28;20397;-75
2024/01/23 02:52:33;;;;;;;151.18;141.70;;;4.90;99.90;;;;;;4944045;28;20066;-76
2024/01/23 02:54:59;;;;;;;224.13;209.20;;;4.90;99.90;;;;;;4948656;28;20347;-75
2024/01/23 02:57:25;;;;;;;219.40;203.53;;;4.90;99.90;;;;;;4923604;29;20048;-75
2024/01/23 02:59:54;;;;;;;201.40;187.95;;;4.90;99.90;;;;;;4943093;28;20142;-75
2024/01/23 03:02:21;;;;;;;330.52;298.02;;;5.00;99.90;;;;;;4934092;29;20567;-75
2024/01/23 03:04:47;;;;;;;147.73;137.48;;;5.10;99.90;;;;;;4936373;29;20117;-75
2024/01/23 03:07:14;;;;;;;145.63;135.47;;;5.20;99.90;;;;;;4933036;28;20532;-75
2024/01/23 03:09:40;;;;;;;313.75;287.92;;;5.20;99.90;;;;;;4948452;28;20039;-75
2024/01/23 03:12:22;;;;;;;182.65;170.10;;;5.30;99.90;;;;;;4946937;28;20516;-75
2024/01/23 03:14:49;;;;;;;210.35;195.40;;;5.30;99.90;;;;;;4939829;28;20039;-75
2024/01/23 03:17:16;;;;;;;232.38;215.98;;;5.40;99.90;;;;;;4945436;28;20501;-75
2024/01/23 03:19:42;;;;;;;204.32;189.73;;;5.40;99.90;;;;;;4958393;28;20408;-74
2024/01/23 03:22:09;;;;;;;266.15;244.95;;;5.50;99.90;;;;;;4952583;28;20518;-75
2024/01/23 03:24:39;;;;;;;256.30;238.20;;;5.50;99.90;;;;;;4947818;28;20412;-75
2024/01/23 03:27:06;;;;;;;204.50;189.95;;;5.50;99.90;;;;;;4956576;28;20043;-76
2024/01/23 03:29:40;;;;;;;183.23;169.77;;;5.50;99.90;;;;;;4940564;28;20044;-75
2024/01/23 03:32:07;;;;;;;286.23;262.77;;;5.50;99.90;;;;;;4951011;28;20106;-75
2024/01/23 03:34:33;;;;;;;197.60;184.20;;;5.50;99.90;;;;;;4949399;28;20410;-75
2024/01/23 03:37:02;;;;;;;252.00;234.18;;;5.60;99.90;;;;;;4946095;28;20664;-76
2024/01/23 03:39:28;;;;;;;213.40;197.88;;;5.60;99.90;;;;;;4944684;28;20048;-75
2024/01/23 03:41:55;;;;;;;262.38;241.27;;;5.70;99.90;;;;;;4933020;28;20046;-74
2024/01/23 03:44:26;;;;;;;224.15;209.02;;;5.70;99.90;;;;;;4945415;28;20040;-75
2024/01/23 03:46:53;;;;;;;211.98;197.07;;;5.70;99.90;;;;;;4926253;28;20053;-75
2024/01/23 03:49:19;;;;;;;237.15;220.23;;;5.70;99.90;;;;;;4939128;29;20039;-75
2024/01/23 03:51:45;;;;;;;284.30;262.85;;;5.80;99.90;;;;;;4948952;28;20401;-75
2024/01/23 03:54:11;;;;;;;178.43;166.63;;;5.80;99.90;;;;;;4930685;29;20034;-75
2024/01/23 03:56:37;;;;;;;199.67;185.20;;;5.80;99.90;;;;;;4943930;28;20185;-76
2024/01/23 03:59:03;;;;;;;283.45;261.45;;;5.80;99.90;;;;;;4923433;29;20051;-76
2024/01/23 04:01:28;;;;;;;193.20;180.37;;;5.80;99.90;;;;;;4932303;29;20126;-76
2024/01/23 04:03:54;;;;;;;230.53;214.73;;;5.80;99.90;;;;;;4940722;28;20051;-75
2024/01/23 04:06:20;;;;;;;260.30;243.17;;;5.80;99.90;;;;;;4950623;28;20342;-75
2024/01/23 04:08:46;;;;;;;226.50;210.63;;;5.80;99.90;;;;;;4942332;28;20568;-76
2024/01/23 04:11:11;;;;;;;267.60;248.53;;;5.80;99.90;;;;;;4950045;28;20080;-75
2024/01/23 04:13:37;;;;;;;257.07;238.70;;;5.80;99.90;;;;;;4932551;29;20482;-75
2024/01/23 04:16:05;;;;;;;181.60;168.80;;;5.80;99.90;;;;;;4949894;28;20198;-74
2024/01/23 04:18:31;;;;;;;289.08;267.30;;;5.80;99.90;;;;;;4942779;28;20148;-76
2024/01/23 04:20:57;;;;;;;190.90;177.07;;;5.80;99.90;;;;;;4939292;29;20170;-76
2024/01/23 04:23:22;;;;;;;185.33;172.67;;;5.80;99.90;;;;;;4945522;28;20615;-76
2024/01/23 04:25:48;;;;;;;265.80;245.93;;;5.80;99.90;;;;;;4942788;28;20379;-75
2024/01/23 04:28:14;;;;;;;160.87;149.47;;;5.80;99.90;;;;;;4957290;28;20420;-75
2024/01/23 04:30:39;;;;;;;193.90;180.47;;;5.80;99.90;;;;;;4948305;28;20185;-75
2024/01/23 04:33:06;;;;;;;262.27;242.40;;;5.80;99.90;;;;;;4950779;28;20525;-76
2024/01/23 04:35:33;;;;;;;213.57;197.80;;;5.80;99.90;;;;;;4946238;28;20039;-76
2024/01/23 04:37:58;;;;;;;240.23;223.60;;;5.80;99.90;;;;;;4933817;29;20051;-76
2024/01/23 04:40:24;;;;;;;234.97;218.87;;;5.80;99.90;;;;;;4930334;29;20047;-75
2024/01/23 04:42:50;;;;;;;661.10;585.40;;;5.80;99.90;;;;;;4930674;29;20039;-75
2024/01/23 04:45:16;;;;;;;211.97;197.17;;;5.90;99.90;;;;;;4927751;28;20420;-76
2024/01/23 04:47:41;;;;;;;238.73;222.40;;;5.90;99.90;;;;;;4949359;28;20427;-76
2024/01/23 04:50:08;;;;;;;213.17;198.23;;;5.90;99.90;;;;;;4938102;28;20040;-75
2024/01/23 04:52:33;;;;;;;279.10;257.75;;;5.90;99.90;;;;;;4925078;29;20063;-76
2024/01/23 04:54:59;;;;;;;201.93;187.80;;;5.90;99.90;;;;;;4940103;28;20036;-75
2024/01/23 04:57:31;;;;;;;294.60;271.50;;;5.90;99.90;;;;;;4937896;28;20055;-76
2024/01/23 04:59:58;;;;;;;275.05;254.95;;;5.80;99.90;;;;;;4942498;28;20039;-76
2024/01/23 05:02:24;;;;;;;312.20;287.95;;;5.70;99.90;;;;;;4948415;28;20468;-76
2024/01/23 05:04:50;;;;;;;193.52;179.95;;;5.60;99.90;;;;;;4948483;28;20086;-76
2024/01/23 05:07:15;;;;;;;192.37;177.73;;;5.60;99.90;;;;;;4928609;28;20205;-76
2024/01/23 05:09:41;;;;;;;193.77;180.47;;;5.50;99.90;;;;;;4934338;29;20525;-75
2024/01/23 05:12:07;;;;;;;155.63;144.60;;;5.40;99.90;;;;;;4926809;29;20122;-76
2024/01/23 05:14:33;;;;;;;220.10;202.77;;;5.40;99.90;;;;;;4949028;28;20133;-76
2024/01/23 05:16:58;;;;;;;320.13;295.23;;;5.30;99.90;;;;;;4945927;28;20345;-75
2024/01/23 05:19:24;;;;;;;154.23;142.80;;;5.20;99.90;;;;;;4943230;28;20516;-75
2024/01/23 05:21:50;;;;;;;141.27;130.63;;;5.20;99.90;;;;;;4942617;28;20490;-76
2024/01/23 05:24:17;;;;;;;174.10;161.03;;;5.10;99.90;;;;;;4940817;28;20071;-76
2024/01/23 05:26:43;;;;;;;231.45;215.52;;;5.00;99.90;;;;;;4928291;29;20070;-75
2024/01/23 05:29:08;;;;;;;235.97;219.23;;;5.00;99.90;;;;;;4946515;28;20039;-76
2024/01/23 05:31:34;;;;;;;234.70;216.63;;;4.90;99.90;;;;;;4952194;28;20038;-76
2024/01/23 05:34:00;;;;;;;185.63;171.83;;;4.90;99.90;;;;;;4948180;28;20107;-76
2024/01/23 05:36:25;;;;;;;173.83;160.30;;;4.90;99.90;;;;;;4945924;28;20071;-76
2024/01/23 05:38:51;;;;;;;149.90;138.63;;;4.90;99.90;;;;;;4944219;28;20609;-76
2024/01/23 05:41:17;;;;;;;171.20;159.10;;;4.80;99.90;;;;;;4933831;29;20069;-75
2024/01/23 05:43:43;;;;;;;166.15;153.05;;;4.80;99.90;;;;;;4945459;28;20066;-77
2024/01/23 05:46:09;;;;;;;173.87;160.50;;;4.80;99.90;;;;;;4941770;28;20401;-76
2024/01/23 05:48:35;;;;;;;204.27;188.60;;;4.80;99.90;;;;;;4947471;28;20042;-76
2024/01/23 05:51:00;;;;;;;118.27;108.13;;;4.70;99.90;;;;;;4931905;29;20052;-76
2024/01/23 05:53:26;;;;;;;207.53;191.47;;;4.70;99.90;;;;;;4946313;28;20059;-76
2024/01/23 05:55:53;;;;;;;128.67;118.40;;;4.60;99.90;;;;;;4920132;29;20039;-76
2024/01/23 05:58:18;;;;;;;142.82;131.55;;;4.60;99.90;;;;;;4925599;29;20048;-75
2024/01/23 06:00:44;;;;;;;237.23;218.73;;;4.60;99.90;;;;;;4942685;28;20125;-76
2024/01/23 06:03:10;;;;;;;131.50;120.90;;;4.50;99.90;;;;;;4944056;29;20047;-76
2024/01/23 06:05:36;;;;;;;157.10;145.00;;;4.50;99.90;;;;;;4941125;28;20043;-76
2024/01/23 06:08:03;;;;;;;152.43;140.53;;;4.50;99.90;;;;;;4940467;28;20625;-75
2024/01/23 06:10:28;;;;;;;160.20;148.13;;;4.60;99.90;;;;;;4941471;28;20043;-75
2024/01/23 06:12:54;;;;;;;117.07;107.47;;;4.60;99.90;;;;;;4951363;28;20038;-76
2024/01/23 06:15:20;;;;;;;204.70;189.23;;;4.50;99.90;;;;;;4949786;28;20044;-76
2024/01/23 06:17:46;;;;;;;220.57;203.70;;;4.50;99.90;;;;;;4948085;28;20058;-76
2024/01/23 06:20:12;;;;;;;181.73;168.17;;;4.50;99.90;;;;;;4948824;28;20490;-76
2024/01/23 06:22:38;;;;;;;163.88;151.02;;;4.60;99.90;;;;;;4947123;29;20047;-76
2024/01/23 06:25:10;;;;;;;170.43;156.40;;;4.60;99.90;;;;;;4948268;28;20066;-76
2024/01/23 06:27:37;;;;;;;195.70;181.93;;;4.60;99.90;;;;;;4953174;28;20047;-76
2024/01/23 06:30:04;;;;;;;204.17;188.10;;;4.50;99.90;;;;;;4947305;29;20043;-76
2024/01/23 06:32:31;;;;;;;269.35;247.52;;;4.50;99.90;;;;;;4951526;29;20123;-76
2024/01/23 06:34:57;;;;;;;154.80;142.57;;;4.60;99.90;;;;;;4922761;29;20043;-76
2024/01/23 06:37:23;;;;;;;175.83;162.83;;;4.60;99.90;;;;;;4931229;29;20043;-76
2024/01/23 06:39:49;;;;;;;156.93;144.48;;;4.50;99.90;;;;;;4947792;28;20039;-77
2024/01/23 06:42:14;;;;;;;151.73;139.67;;;4.50;99.90;;;;;;4947028;29;20051;-76
2024/01/23 06:44:40;;;;;;;195.70;180.87;;;4.50;99.90;;;;;;4944338;29;20134;-76
2024/01/23 06:47:06;;;;;;;130.00;120.00;;;4.50;99.90;;;;;;4954044;29;20062;-76
2024/01/23 06:49:32;;;;;;;133.30;122.50;;;4.50;99.90;;;;;;4940089;29;20077;-76
2024/01/23 06:51:57;;;;;;;134.03;123.43;;;4.50;99.90;;;;;;4926944;29;20043;-75
2024/01/23 06:54:23;;;;;;;172.97;159.57;;;4.50;99.90;;;;;;4934027;29;20138;-76
2024/01/23 06:56:49;;;;;;;184.83;170.87;;;4.50;99.90;;;;;;4950595;29;20041;-76
2024/01/23 06:59:15;;;;;;;180.70;167.03;;;4.50;99.90;;;;;;4933406;28;20075;-76
2024/01/23 07:01:41;;;;;;;216.23;201.13;;;4.40;99.90;;;;;;4945864;29;20048;-76
2024/01/23 07:04:07;;;;;;;153.40;142.43;;;4.40;99.90;;;;;;4956772;28;20134;-76
2024/01/23 07:06:33;;;;;;;111.90;102.10;;;4.40;99.90;;;;;;4933726;29;20306;-76
2024/01/23 07:08:59;;;;;;;152.85;141.02;;;4.40;99.90;;;;;;4933054;29;20086;-76
2024/01/23 07:11:25;;;;;;;190.73;176.37;;;4.40;99.90;;;;;;4939184;29;20043;-76
2024/01/23 07:13:51;;;;;;;193.32;178.48;;;4.40;99.90;;;;;;4950090;28;20569;-76
2024/01/23 07:16:17;;;;;;;199.60;184.85;;;4.40;99.90;;;;;;4948095;28;20536;-76
2024/01/23 07:18:43;;;;;;;188.90;175.02;;;4.40;99.90;;;;;;4948327;28;20513;-76
2024/01/23 07:21:09;;;;;;;155.67;144.00;;;4.30;99.90;;;;;;4933274;29;20054;-76
2024/01/23 07:23:36;;;;;;;182.90;169.30;;;4.30;99.90;;;;;;4932026;29;20040;-76
2024/01/23 07:26:02;;;;;;;182.93;169.45;;;4.30;99.90;;;;;;4947106;29;20766;-77
2024/01/23 07:28:28;;;;;;;172.05;159.45;;;4.20;99.90;;;;;;4926273;29;20467;-75
2024/01/23 07:30:54;;;;;;;174.03;160.73;;;4.30;99.90;;;;;;4951322;28;20101;-76
2024/01/23 07:33:19;;;;;;;191.57;177.17;;;4.30;99.90;;;;;;4949445;29;20031;-76
2024/01/23 07:35:45;;;;;;;179.23;166.27;;;4.30;99.90;;;;;;4927875;29;20063;-76
2024/01/23 07:38:11;;;;;;;124.77;114.83;;;4.30;99.90;;;;;;4947267;28;20054;-76
2024/01/23 07:40:37;;;;;;;119.30;109.10;;;4.30;99.90;;;;;;4928888;29;20067;-76
2024/01/23 07:43:03;;;;;;;206.45;190.77;;;4.20;99.90;;;;;;4944898;29;20523;-76
2024/01/23 07:45:29;;;;;;;146.93;135.07;;;4.20;99.90;;;;;;4936265;29;20051;-76
2024/01/23 07:47:55;;;;;;;158.52;145.50;;;4.20;99.90;;;;;;4936353;29;20039;-76
2024/01/23 07:50:21;;;;;;;146.65;135.27;;;4.20;99.90;;;;;;4948905;29;20127;-75
2024/01/23 07:52:47;;;;;;;138.57;128.13;;;4.20;99.90;;;;;;4954007;28;20118;-76
2024/01/23 07:55:13;;;;;;;135.47;124.40;;;4.10;99.90;;;;;;4934722;29;20512;-76
2024/01/23 07:57:38;;;;;;;193.73;179.27;;;4.10;99.90;;;;;;4921291;28;20050;-75
2024/01/23 08:00:05;;;;;;;162.27;149.37;;;4.10;99.90;;;;;;4946833;28;20105;-75
2024/01/23 08:02:31;;;;;;;124.57;114.53;;;4.10;99.90;;;;;;4943415;28;20035;-76
2024/01/23 08:04:56;;;;;;;176.67;162.97;;;4.10;99.90;;;;;;4931627;29;20055;-76
2024/01/23 08:07:22;;;;;;;140.77;129.60;;;4.10;99.90;;;;;;4940195;28;20051;-76
2024/01/23 08:09:48;;;;;;;131.73;122.07;;;4.10;99.90;;;;;;4951183;28;20494;-76
2024/01/23 08:12:15;;;;;;;138.63;127.90;;;4.10;99.90;;;;;;4945801;28;20043;-75
2024/01/23 08:14:41;;;;;;;119.32;109.85;;;4.10;99.90;;;;;;4925439;28;20066;-76
2024/01/23 08:17:07;;;;;;;166.73;154.77;;;4.10;99.90;;;;;;4926001;29;20036;-76
2024/01/23 08:19:32;;;;;;;176.23;163.10;;;4.10;99.90;;;;;;4952394;28;20445;-75
2024/01/23 08:21:58;;;;;;;156.90;145.00;;;4.10;99.90;;;;;;4933621;29;20557;-75
2024/01/23 08:24:24;;;;;;;136.23;124.97;;;4.10;99.90;;;;;;4945946;28;20070;-76
2024/01/23 08:26:52;;;;;;;147.73;135.83;;;4.20;99.90;;;;;;4946381;28;20142;-75
2024/01/23 08:29:19;;;;;;;240.93;223.00;;;4.20;99.90;;;;;;4949031;28;20093;-76
2024/01/23 08:31:45;;;;;;;151.25;139.20;;;4.20;99.90;;;;;;4934140;29;20509;-76
2024/01/23 08:34:11;;;;;;;178.85;164.80;;;4.20;99.90;;;;;;4950974;29;20054;-75
2024/01/23 08:36:37;;;;;;;166.43;153.20;;;4.30;99.90;;;;;;4943389;28;20539;-75
2024/01/23 08:39:03;;;;;;;165.50;152.07;;;4.30;99.90;;;;;;4944286;28;20296;-75
2024/01/23 08:41:29;;;;;;;157.10;145.55;;;4.40;99.90;;;;;;4940601;28;20081;-75
2024/01/23 08:43:55;;;;;;;176.63;162.20;;;4.40;99.90;;;;;;4942534;28;20039;-76
2024/01/23 08:46:21;;;;;;;127.03;117.00;;;4.40;99.90;;;;;;4951533;28;20058;-75
2024/01/23 08:48:48;;;;;;;150.82;138.40;;;4.40;99.90;;;;;;4940067;28;20047;-75
2024/01/23 08:51:14;;;;;;;177.73;163.63;;;4.40;99.90;;;;;;4943239;28;20519;-76
2024/01/23 08:53:39;;;;;;;187.70;174.37;;;4.50;99.90;;;;;;4938196;28;20038;-76
2024/01/23 08:56:05;;;;;;;194.33;180.07;;;4.50;99.90;;;;;;4949516;28;20030;-76
2024/01/23 08:58:31;;;;;;;147.93;136.37;;;4.50;99.90;;;;;;4942892;28;20048;-75
2024/01/23 09:00:57;;;;;;;222.82;206.02;;;4.50;99.90;;;;;;4930985;29;20126;-76
2024/01/23 09:03:23;;;;;;;126.07;115.97;;;4.60;99.90;;;;;;4929794;29;20269;-75
2024/01/23 09:05:50;;;;;;;169.17;155.70;;;4.60;99.90;;;;;;4929208;29;20291;-76
2024/01/23 09:08:16;;;;;;;204.45;189.98;;;4.60;99.90;;;;;;4932488;28;20878;-76
2024/01/23 09:10:42;;;;;;;177.23;164.13;;;4.70;99.90;;;;;;4923495;29;20043;-75
2024/01/23 09:13:08;;;;;;;163.45;150.63;;;4.70;99.90;;;;;;4938068;29;20043;-75
2024/01/23 09:15:34;;;;;;;196.70;182.30;;;4.80;99.90;;;;;;4945177;28;20095;-76
2024/01/23 09:18:00;;;;;;;191.07;176.25;;;4.90;99.90;;;;;;4938971;28;20476;-76
2024/01/23 09:20:26;;;;;;;168.52;155.95;;;4.90;99.90;;;;;;4958000;28;20047;-75
2024/01/23 09:22:52;;;;;;;175.03;161.70;;;5.00;99.90;;;;;;4940300;28;20038;-76
2024/01/23 09:25:18;;;;;;;226.73;209.47;;;5.10;99.90;;;;;;4946858;29;20047;-75
2024/01/23 09:27:44;;;;;;;162.70;150.20;;;5.20;99.90;;;;;;4949455;28;20043;-76
2024/01/23 09:30:10;;;;;;;257.63;237.37;;;5.30;99.90;;;;;;4930486;29;20397;-76
2024/01/23 09:32:35;;;;;;;319.15;293.13;;;5.40;99.90;;;;;;4944504;28;20115;-76
2024/01/23 09:35:02;;;;;;;228.03;209.00;;;5.50;99.90;;;;;;4951282;28;20091;-76
2024/01/23 09:37:28;;;;;;;295.13;271.55;;;5.50;99.90;;;;;;4943205;29;20063;-75
2024/01/23 09:39:54;;;;;;;456.67;419.83;;;5.50;99.90;;;;;;4939578;28;20374;-76
2024/01/23 09:42:23;;;;;;;216.73;201.27;;;5.50;99.90;;;;;;4944999;28;20136;-76
2024/01/23 09:44:53;;;;;;;226.30;210.40;;;5.50;99.90;;;;;;4931940;29;20043;-76
2024/01/23 09:47:20;;;;;;;292.60;268.90;;;5.50;99.90;;;;;;4940277;29;20450;-76
2024/01/23 09:49:47;;;;;;;249.82;231.52;;;5.60;99.90;;;;;;4944980;28;20166;-76
2024/01/23 09:52:13;;;;;;;214.02;198.18;;;5.70;99.90;;;;;;4952036;28;20046;-76
2024/01/23 09:54:40;;;;;;;288.92;266.60;;;5.70;99.90;;;;;;4933437;28;20039;-76
2024/01/23 09:57:07;;;;;;;293.80;270.48;;;5.70;99.90;;;;;;4961433;28;20043;-76
2024/01/23 09:59:33;;;;;;;225.60;208.40;;;5.80;99.90;;;;;;4933614;28;20075;-76
2024/01/23 10:01:59;;;;;;;392.40;357.37;;;5.80;99.90;;;;;;4926767;29;20075;-76
2024/01/23 10:04:27;;;;;;;393.07;358.43;;;5.80;99.90;;;;;;4952938;28;20070;-76
2024/01/23 10:06:53;;;;;;;201.63;185.90;;;5.90;99.90;;;;;;4957674;28;20043;-76
2024/01/23 10:09:19;;;;;;;205.17;190.00;;;5.90;99.90;;;;;;4939648;28;20101;-76
2024/01/23 10:11:44;;;;;;;342.63;313.07;;;5.90;99.90;;;;;;4926003;29;20088;-76
2024/01/23 10:14:13;;;;;;;222.60;206.30;;;5.90;99.90;;;;;;4948307;28;20031;-76
2024/01/23 10:16:39;;;;;;;422.75;386.17;;;5.90;99.90;;;;;;4930342;29;20043;-76
2024/01/23 10:19:09;;;;;;;408.20;373.58;;;5.90;99.90;;;;;;4938088;28;20047;-76
2024/01/23 10:21:35;;;;;;;359.13;331.02;;;5.90;99.90;;;;;;4939509;28;20184;-77
2024/01/23 10:24:01;;;;;;;274.33;251.80;;;5.90;99.90;;;;;;4937245;29;20043;-76
2024/01/23 10:26:27;;;;;;;314.43;290.93;;;6.00;99.90;;;;;;4950725;28;20046;-76
2024/01/23 10:28:52;;;;;;;283.90;261.03;;;6.00;99.90;;;;;;4941950;28;20043;-76
2024/01/23 10:31:18;;;;;;;323.77;300.07;;;6.10;99.90;;;;;;4953193;28;20048;-76
2024/01/23 10:33:44;;;;;;;378.73;349.33;;;6.10;99.90;;;;;;4924887;29;20114;-76
2024/01/23 10:36:11;;;;;;;467.55;426.10;;;6.20;99.90;;;;;;4945320;28;20089;-75
2024/01/23 10:38:37;;;;;;;298.38;271.75;;;6.10;99.90;;;;;;4942661;29;20051;-76
2024/01/23 10:41:07;;;;;;;372.63;344.42;;;6.20;99.90;;;;;;4934226;28;20046;-77
2024/01/23 10:43:34;;;;;;;271.73;250.63;;;6.20;99.90;;;;;;4954903;28;20441;-76
2024/01/23 10:46:03;;;;;;;304.58;281.33;;;6.30;99.90;;;;;;4934119;28;20103;-76
2024/01/23 10:48:30;;;;;;;346.25;319.67;;;6.40;99.90;;;;;;4953370;28;20039;-76
2024/01/23 10:51:10;;;;;;;371.23;338.92;;;6.40;99.90;;;;;;4953562;28;20523;-77
2024/01/23 10:53:46;;;;;;;568.92;518.78;;;6.40;99.90;;;;;;4947423;29;20401;-76
2024/01/23 10:56:15;;;;;;;303.48;281.45;;;6.50;99.90;;;;;;4951179;29;20414;-76
2024/01/23 10:58:43;;;;;;;534.25;482.88;;;6.60;99.90;;;;;;4943252;28;20039;-77
2024/01/23 11:01:11;;;;;;;501.23;457.45;;;6.70;99.90;;;;;;4945370;28;20040;-77
2024/01/23 11:03:38;;;;;;;281.27;259.90;;;6.70;99.90;;;;;;4946372;29;20067;-76
2024/01/23 11:06:17;;;;;;;387.17;353.75;;;6.70;99.90;;;;;;4948712;28;20051;-76
2024/01/23 11:08:51;;;;;;;289.45;268.35;;;6.80;99.90;;;;;;4932720;28;20048;-77
2024/01/23 11:11:23;;;;;;;537.50;486.92;;;6.80;99.80;;;;;;4942669;29;20053;-77
2024/01/23 11:13:57;;;;;;;412.90;376.05;;;6.70;99.80;;;;;;4933842;29;20175;-75
2024/01/23 11:16:23;;;;;;;584.33;529.00;;;6.70;99.90;;;;;;4951466;28;20047;-75
2024/01/23 11:18:54;;;;;;;296.27;273.93;;;6.70;99.90;;;;;;4950282;28;20390;-75
2024/01/23 11:21:22;;;;;;;278.65;257.55;;;6.70;99.90;;;;;;4933545;29;20048;-76
2024/01/23 11:24:02;;;;;;;645.45;578.50;;;6.70;99.90;;;;;;4923644;29;20122;-77
2024/01/23 11:26:28;;;;;;;477.38;434.67;;;6.60;99.70;;;;;;4932363;29;20047;-76
2024/01/23 11:28:54;;;;;;;297.17;276.83;;;6.60;99.20;;;;;;4946354;28;20462;-76
2024/01/23 11:31:25;;;;;;;418.98;384.60;;;6.60;99.60;;;;;;4937468;29;20510;-75
2024/01/23 11:33:52;;;;;;;216.50;201.57;;;6.60;99.70;;;;;;4937190;29;20382;-75
2024/01/23 11:36:28;;;;;;;469.95;431.33;;;6.70;99.90;;;;;;4954907;29;20043;-76
2024/01/23 11:38:58;;;;;;;306.90;282.92;;;6.70;99.80;;;;;;4940434;29;20047;-77
2024/01/23 11:41:27;;;;;;;441.73;406.10;;;6.70;99.60;;;;;;4936251;29;20047;-77
2024/01/23 11:43:53;;;;;;;249.95;231.82;;;6.70;99.90;;;;;;4947144;29;20047;-77
2024/01/23 11:46:24;;;;;;;308.95;286.42;;;6.80;99.90;;;;;;4931086;29;20115;-78
2024/01/23 11:48:51;;;;;;;271.52;251.80;;;6.80;99.90;;;;;;4948267;28;20039;-78
2024/01/23 11:51:17;;;;;;;329.50;305.67;;;6.80;99.90;;;;;;4950256;29;20043;-79
2024/01/23 11:53:44;;;;;;;290.15;268.60;;;6.90;99.90;;;;;;4956853;28;20098;-78
2024/01/23 11:56:11;;;;;;;343.25;317.05;;;6.90;99.90;;;;;;4927888;29;20123;-76
2024/01/23 11:58:37;;;;;;;365.95;337.92;;;6.90;99.50;;;;;;4954604;29;20043;-78
2024/01/23 12:01:04;;;;;;;568.67;508.77;;;6.90;99.50;;;;;;4948038;28;20039;-79
2024/01/23 12:03:30;;;;;;;341.77;317.10;;;6.90;99.80;;;;;;4927945;28;20061;-77
2024/01/23 12:05:56;;;;;;;320.48;297.38;;;6.90;99.90;;;;;;4956126;28;20098;-78
2024/01/23 12:08:23;;;;;;;759.83;650.03;;;7.00;99.90;;;;;;4941094;28;20412;-79
2024/01/23 12:10:50;;;;;;;528.88;478.08;;;6.90;99.70;;;;;;4932933;29;20040;-78
2024/01/23 12:13:16;;;;;;;370.85;343.52;;;7.00;99.80;;;;;;4944118;28;20517;-77
2024/01/23 12:15:41;;;;;;;433.57;397.90;;;7.00;99.90;;;;;;4941412;28;20126;-76